sensor_id;sensor_type;location;lat;lon;timestamp;P1;durP1;ratioP1;P2;durP2;ratioP2
55254;SDS011;41118;44.634;11.182;2023-02-25T00:02:09;46.40;;;19.80;;
55254;SDS011;41118;44.634;11.182;2023-02-25T00:04:35;43.47;;;18.20;;
55254;SDS011;41118;44.634;11.182;2023-02-25T00:07:01;41.00;;;18.15;;
55254;SDS011;41118;44.634;11.182;2023-02-25T00:09:28;48.33;;;19.52;;
55254;SDS011;41118;44.634;11.182;2023-02-25T00:11:54;45.33;;;18.13;;
55254;SDS011;41118;44.634;11.182;2023-02-25T00:14:20;41.03;;;17.63;;
55254;SDS011;41118;44.634;11.182;2023-02-25T00:16:50;45.58;;;19.58;;
55254;SDS011;41118;44.634;11.182;2023-02-25T00:19:19;44.13;;;20.10;;
55254;SDS011;41118;44.634;11.182;2023-02-25T00:21:45;40.53;;;19.65;;
55254;SDS011;41118;44.634;11.182;2023-02-25T00:24:12;35.28;;;16.58;;
55254;SDS011;41118;44.634;11.182;2023-02-25T00:26:38;38.00;;;18.25;;
55254;SDS011;41118;44.634;11.182;2023-02-25T00:29:04;38.00;;;18.08;;
55254;SDS011;41118;44.634;11.182;2023-02-25T00:31:30;42.28;;;18.33;;
55254;SDS011;41118;44.634;11.182;2023-02-25T00:33:56;31.80;;;16.67;;
55254;SDS011;41118;44.634;11.182;2023-02-25T00:36:24;37.70;;;18.17;;
55254;SDS011;41118;44.634;11.182;2023-02-25T00:38:51;48.45;;;21.92;;
55254;SDS011;41118;44.634;11.182;2023-02-25T00:41:18;42.30;;;18.65;;
55254;SDS011;41118;44.634;11.182;2023-02-25T00:43:50;42.00;;;19.80;;
55254;SDS011;41118;44.634;11.182;2023-02-25T00:46:16;46.30;;;17.77;;
55254;SDS011;41118;44.634;11.182;2023-02-25T00:48:43;48.67;;;19.83;;
55254;SDS011;41118;44.634;11.182;2023-02-25T00:51:11;41.53;;;17.80;;
55254;SDS011;41118;44.634;11.182;2023-02-25T00:53:37;49.78;;;19.60;;
55254;SDS011;41118;44.634;11.182;2023-02-25T00:56:04;37.90;;;18.50;;
55254;SDS011;41118;44.634;11.182;2023-02-25T00:58:31;39.30;;;19.15;;
55254;SDS011;41118;44.634;11.182;2023-02-25T01:00:57;39.65;;;19.15;;
55254;SDS011;41118;44.634;11.182;2023-02-25T01:03:24;49.17;;;19.73;;
55254;SDS011;41118;44.634;11.182;2023-02-25T01:05:50;47.95;;;22.30;;
55254;SDS011;41118;44.634;11.182;2023-02-25T01:08:17;40.95;;;15.45;;
55254;SDS011;41118;44.634;11.182;2023-02-25T01:10:44;42.35;;;18.73;;
55254;SDS011;41118;44.634;11.182;2023-02-25T01:13:11;38.78;;;17.63;;
55254;SDS011;41118;44.634;11.182;2023-02-25T01:15:37;39.00;;;17.40;;
55254;SDS011;41118;44.634;11.182;2023-02-25T01:18:03;42.80;;;19.30;;
55254;SDS011;41118;44.634;11.182;2023-02-25T01:20:29;41.13;;;18.45;;
55254;SDS011;41118;44.634;11.182;2023-02-25T01:22:56;44.95;;;18.05;;
55254;SDS011;41118;44.634;11.182;2023-02-25T01:25:24;40.72;;;18.70;;
55254;SDS011;41118;44.634;11.182;2023-02-25T01:27:54;44.58;;;18.45;;
55254;SDS011;41118;44.634;11.182;2023-02-25T01:30:21;42.50;;;19.38;;
55254;SDS011;41118;44.634;11.182;2023-02-25T01:32:47;42.95;;;19.17;;
55254;SDS011;41118;44.634;11.182;2023-02-25T01:35:13;41.92;;;18.45;;
55254;SDS011;41118;44.634;11.182;2023-02-25T01:37:39;40.67;;;17.58;;
55254;SDS011;41118;44.634;11.182;2023-02-25T01:40:08;42.70;;;20.08;;
55254;SDS011;41118;44.634;11.182;2023-02-25T01:42:41;45.38;;;18.20;;
55254;SDS011;41118;44.634;11.182;2023-02-25T01:47:43;39.97;;;18.73;;
55254;SDS011;41118;44.634;11.182;2023-02-25T01:50:10;43.45;;;18.08;;
55254;SDS011;41118;44.634;11.182;2023-02-25T01:52:36;40.15;;;18.00;;
55254;SDS011;41118;44.634;11.182;2023-02-25T01:55:04;34.33;;;17.00;;
55254;SDS011;41118;44.634;11.182;2023-02-25T01:57:30;38.90;;;17.77;;
55254;SDS011;41118;44.634;11.182;2023-02-25T01:59:56;38.30;;;18.90;;
55254;SDS011;41118;44.634;11.182;2023-02-25T02:02:22;31.08;;;15.52;;
55254;SDS011;41118;44.634;11.182;2023-02-25T02:04:50;35.13;;;15.82;;
55254;SDS011;41118;44.634;11.182;2023-02-25T02:07:18;39.88;;;17.20;;
55254;SDS011;41118;44.634;11.182;2023-02-25T02:09:44;41.17;;;15.85;;
55254;SDS011;41118;44.634;11.182;2023-02-25T02:12:20;45.85;;;15.73;;
55254;SDS011;41118;44.634;11.182;2023-02-25T02:14:46;38.38;;;16.25;;
55254;SDS011;41118;44.634;11.182;2023-02-25T02:20:04;36.92;;;15.40;;
55254;SDS011;41118;44.634;11.182;2023-02-25T02:22:46;41.30;;;19.60;;
55254;SDS011;41118;44.634;11.182;2023-02-25T02:43:14;32.15;;;14.68;;
55254;SDS011;41118;44.634;11.182;2023-02-25T02:46:17;30.00;;;16.15;;
55254;SDS011;41118;44.634;11.182;2023-02-25T02:48:38;41.03;;;18.33;;
55254;SDS011;41118;44.634;11.182;2023-02-25T02:51:25;42.15;;;17.25;;
55254;SDS011;41118;44.634;11.182;2023-02-25T02:53:55;39.85;;;16.77;;
55254;SDS011;41118;44.634;11.182;2023-02-25T02:56:23;41.90;;;18.10;;
55254;SDS011;41118;44.634;11.182;2023-02-25T02:58:51;51.08;;;21.13;;
55254;SDS011;41118;44.634;11.182;2023-02-25T03:01:24;55.53;;;21.42;;
55254;SDS011;41118;44.634;11.182;2023-02-25T03:03:57;42.10;;;19.30;;
55254;SDS011;41118;44.634;11.182;2023-02-25T03:06:28;59.00;;;19.85;;
55254;SDS011;41118;44.634;11.182;2023-02-25T03:09:14;50.42;;;21.48;;
55254;SDS011;41118;44.634;11.182;2023-02-25T03:11:41;43.13;;;19.92;;
55254;SDS011;41118;44.634;11.182;2023-02-25T03:14:09;42.67;;;18.63;;
55254;SDS011;41118;44.634;11.182;2023-02-25T03:19:07;49.88;;;22.13;;
55254;SDS011;41118;44.634;11.182;2023-02-25T03:21:37;49.20;;;21.88;;
55254;SDS011;41118;44.634;11.182;2023-02-25T03:24:04;58.05;;;21.48;;
55254;SDS011;41118;44.634;11.182;2023-02-25T03:26:33;49.75;;;21.98;;
55254;SDS011;41118;44.634;11.182;2023-02-25T03:29:00;49.58;;;21.50;;
55254;SDS011;41118;44.634;11.182;2023-02-25T03:31:28;41.42;;;18.45;;
55254;SDS011;41118;44.634;11.182;2023-02-25T03:34:00;52.40;;;19.95;;
55254;SDS011;41118;44.634;11.182;2023-02-25T03:36:38;43.40;;;21.23;;
55254;SDS011;41118;44.634;11.182;2023-02-25T03:39:07;42.15;;;18.55;;
55254;SDS011;41118;44.634;11.182;2023-02-25T03:41:35;47.47;;;18.77;;
55254;SDS011;41118;44.634;11.182;2023-02-25T03:44:03;42.65;;;18.73;;
55254;SDS011;41118;44.634;11.182;2023-02-25T03:46:30;46.83;;;19.67;;
55254;SDS011;41118;44.634;11.182;2023-02-25T03:48:58;50.28;;;19.83;;
55254;SDS011;41118;44.634;11.182;2023-02-25T03:51:29;39.05;;;18.92;;
55254;SDS011;41118;44.634;11.182;2023-02-25T03:53:55;46.08;;;17.42;;
55254;SDS011;41118;44.634;11.182;2023-02-25T03:56:21;50.05;;;19.52;;
55254;SDS011;41118;44.634;11.182;2023-02-25T03:58:48;39.58;;;17.38;;
55254;SDS011;41118;44.634;11.182;2023-02-25T04:01:15;46.80;;;19.42;;
55254;SDS011;41118;44.634;11.182;2023-02-25T04:03:42;46.03;;;19.48;;
55254;SDS011;41118;44.634;11.182;2023-02-25T04:06:09;41.15;;;17.58;;
55254;SDS011;41118;44.634;11.182;2023-02-25T04:08:35;38.47;;;16.85;;
55254;SDS011;41118;44.634;11.182;2023-02-25T04:11:01;43.70;;;19.70;;
55254;SDS011;41118;44.634;11.182;2023-02-25T04:13:28;43.15;;;19.17;;
55254;SDS011;41118;44.634;11.182;2023-02-25T04:15:54;41.28;;;19.35;;
55254;SDS011;41118;44.634;11.182;2023-02-25T04:18:20;49.30;;;18.98;;
55254;SDS011;41118;44.634;11.182;2023-02-25T04:20:50;43.78;;;19.05;;
55254;SDS011;41118;44.634;11.182;2023-02-25T04:23:16;40.70;;;18.83;;
55254;SDS011;41118;44.634;11.182;2023-02-25T04:25:43;41.53;;;19.00;;
55254;SDS011;41118;44.634;11.182;2023-02-25T04:28:09;44.97;;;19.80;;
55254;SDS011;41118;44.634;11.182;2023-02-25T04:30:36;42.40;;;18.35;;
55254;SDS011;41118;44.634;11.182;2023-02-25T04:33:02;40.20;;;15.70;;
55254;SDS011;41118;44.634;11.182;2023-02-25T04:35:29;44.13;;;18.60;;
55254;SDS011;41118;44.634;11.182;2023-02-25T04:37:55;41.22;;;16.75;;
55254;SDS011;41118;44.634;11.182;2023-02-25T04:40:21;44.63;;;18.80;;
55254;SDS011;41118;44.634;11.182;2023-02-25T04:42:48;44.00;;;17.48;;
55254;SDS011;41118;44.634;11.182;2023-02-25T04:45:15;43.63;;;16.25;;
55254;SDS011;41118;44.634;11.182;2023-02-25T04:47:41;40.30;;;17.23;;
55254;SDS011;41118;44.634;11.182;2023-02-25T04:50:08;40.58;;;17.65;;
55254;SDS011;41118;44.634;11.182;2023-02-25T04:52:34;38.90;;;16.52;;
55254;SDS011;41118;44.634;11.182;2023-02-25T04:55:01;41.25;;;17.95;;
55254;SDS011;41118;44.634;11.182;2023-02-25T04:57:27;41.55;;;17.48;;
55254;SDS011;41118;44.634;11.182;2023-02-25T04:59:53;43.53;;;15.65;;
55254;SDS011;41118;44.634;11.182;2023-02-25T05:02:19;37.33;;;17.63;;
55254;SDS011;41118;44.634;11.182;2023-02-25T05:04:45;33.72;;;17.10;;
55254;SDS011;41118;44.634;11.182;2023-02-25T05:07:12;46.17;;;22.15;;
55254;SDS011;41118;44.634;11.182;2023-02-25T05:09:38;42.63;;;19.50;;
55254;SDS011;41118;44.634;11.182;2023-02-25T05:12:04;43.25;;;18.23;;
55254;SDS011;41118;44.634;11.182;2023-02-25T05:14:31;43.65;;;18.65;;
55254;SDS011;41118;44.634;11.182;2023-02-25T05:16:57;44.13;;;18.75;;
55254;SDS011;41118;44.634;11.182;2023-02-25T05:19:23;40.10;;;18.08;;
55254;SDS011;41118;44.634;11.182;2023-02-25T05:21:50;46.95;;;18.38;;
55254;SDS011;41118;44.634;11.182;2023-02-25T05:24:17;51.45;;;18.05;;
55254;SDS011;41118;44.634;11.182;2023-02-25T05:26:43;47.42;;;21.17;;
55254;SDS011;41118;44.634;11.182;2023-02-25T05:29:10;51.20;;;20.25;;
55254;SDS011;41118;44.634;11.182;2023-02-25T05:31:37;37.42;;;18.60;;
55254;SDS011;41118;44.634;11.182;2023-02-25T05:34:04;43.78;;;19.15;;
55254;SDS011;41118;44.634;11.182;2023-02-25T05:36:30;37.83;;;19.85;;
55254;SDS011;41118;44.634;11.182;2023-02-25T05:38:57;53.47;;;23.38;;
55254;SDS011;41118;44.634;11.182;2023-02-25T05:41:24;42.35;;;18.50;;
55254;SDS011;41118;44.634;11.182;2023-02-25T05:43:50;41.85;;;19.52;;
55254;SDS011;41118;44.634;11.182;2023-02-25T05:46:17;42.53;;;18.17;;
55254;SDS011;41118;44.634;11.182;2023-02-25T05:48:43;50.35;;;18.27;;
55254;SDS011;41118;44.634;11.182;2023-02-25T05:51:14;44.60;;;20.88;;
55254;SDS011;41118;44.634;11.182;2023-02-25T05:53:41;43.63;;;20.45;;
55254;SDS011;41118;44.634;11.182;2023-02-25T05:56:11;39.78;;;19.15;;
55254;SDS011;41118;44.634;11.182;2023-02-25T05:58:38;42.50;;;20.75;;
55254;SDS011;41118;44.634;11.182;2023-02-25T06:01:11;42.53;;;17.00;;
55254;SDS011;41118;44.634;11.182;2023-02-25T06:03:41;45.73;;;18.90;;
55254;SDS011;41118;44.634;11.182;2023-02-25T06:06:08;41.42;;;19.20;;
55254;SDS011;41118;44.634;11.182;2023-02-25T06:08:36;43.67;;;19.58;;
55254;SDS011;41118;44.634;11.182;2023-02-25T06:11:04;41.53;;;19.27;;
55254;SDS011;41118;44.634;11.182;2023-02-25T06:13:30;40.05;;;18.48;;
55254;SDS011;41118;44.634;11.182;2023-02-25T06:15:57;52.55;;;23.08;;
55254;SDS011;41118;44.634;11.182;2023-02-25T06:18:23;51.47;;;18.25;;
55254;SDS011;41118;44.634;11.182;2023-02-25T06:20:49;42.92;;;19.92;;
55254;SDS011;41118;44.634;11.182;2023-02-25T06:23:15;42.85;;;19.98;;
55254;SDS011;41118;44.634;11.182;2023-02-25T06:25:42;39.53;;;17.85;;
55254;SDS011;41118;44.634;11.182;2023-02-25T06:28:08;46.25;;;21.23;;
55254;SDS011;41118;44.634;11.182;2023-02-25T06:30:34;44.72;;;18.25;;
55254;SDS011;41118;44.634;11.182;2023-02-25T06:33:00;43.90;;;18.55;;
55254;SDS011;41118;44.634;11.182;2023-02-25T06:35:26;36.47;;;16.67;;
55254;SDS011;41118;44.634;11.182;2023-02-25T06:37:56;47.35;;;18.95;;
55254;SDS011;41118;44.634;11.182;2023-02-25T06:40:22;49.63;;;18.75;;
55254;SDS011;41118;44.634;11.182;2023-02-25T06:42:48;37.15;;;17.00;;
55254;SDS011;41118;44.634;11.182;2023-02-25T06:45:14;35.58;;;15.32;;
55254;SDS011;41118;44.634;11.182;2023-02-25T06:47:41;37.85;;;16.27;;
55254;SDS011;41118;44.634;11.182;2023-02-25T06:50:07;36.65;;;16.13;;
55254;SDS011;41118;44.634;11.182;2023-02-25T06:52:34;38.25;;;14.70;;
55254;SDS011;41118;44.634;11.182;2023-02-25T06:55:00;38.65;;;17.92;;
55254;SDS011;41118;44.634;11.182;2023-02-25T06:57:26;37.38;;;15.75;;
55254;SDS011;41118;44.634;11.182;2023-02-25T06:59:53;26.23;;;11.32;;
55254;SDS011;41118;44.634;11.182;2023-02-25T07:02:19;36.70;;;16.45;;
55254;SDS011;41118;44.634;11.182;2023-02-25T07:04:45;31.73;;;14.18;;
55254;SDS011;41118;44.634;11.182;2023-02-25T07:07:11;33.10;;;14.02;;
55254;SDS011;41118;44.634;11.182;2023-02-25T07:09:37;33.97;;;15.90;;
55254;SDS011;41118;44.634;11.182;2023-02-25T07:12:03;35.70;;;16.17;;
55254;SDS011;41118;44.634;11.182;2023-02-25T07:14:30;33.33;;;15.35;;
55254;SDS011;41118;44.634;11.182;2023-02-25T07:16:56;36.95;;;15.48;;
55254;SDS011;41118;44.634;11.182;2023-02-25T07:19:22;36.13;;;15.63;;
55254;SDS011;41118;44.634;11.182;2023-02-25T07:21:48;37.58;;;18.95;;
55254;SDS011;41118;44.634;11.182;2023-02-25T07:24:14;33.28;;;15.65;;
55254;SDS011;41118;44.634;11.182;2023-02-25T07:26:41;40.70;;;18.35;;
55254;SDS011;41118;44.634;11.182;2023-02-25T07:29:07;41.08;;;18.08;;
55254;SDS011;41118;44.634;11.182;2023-02-25T07:31:33;35.10;;;17.65;;
55254;SDS011;41118;44.634;11.182;2023-02-25T07:33:59;44.60;;;17.20;;
55254;SDS011;41118;44.634;11.182;2023-02-25T07:36:28;51.72;;;19.48;;
55254;SDS011;41118;44.634;11.182;2023-02-25T07:38:57;45.38;;;17.52;;
55254;SDS011;41118;44.634;11.182;2023-02-25T07:41:23;43.88;;;18.92;;
55254;SDS011;41118;44.634;11.182;2023-02-25T07:43:50;43.40;;;17.55;;
55254;SDS011;41118;44.634;11.182;2023-02-25T07:46:16;41.05;;;18.15;;
55254;SDS011;41118;44.634;11.182;2023-02-25T07:48:42;49.20;;;19.10;;
55254;SDS011;41118;44.634;11.182;2023-02-25T07:51:10;41.03;;;19.40;;
55254;SDS011;41118;44.634;11.182;2023-02-25T07:53:36;30.55;;;14.73;;
55254;SDS011;41118;44.634;11.182;2023-02-25T07:56:04;41.58;;;19.52;;
55254;SDS011;41118;44.634;11.182;2023-02-25T07:58:30;40.97;;;18.33;;
55254;SDS011;41118;44.634;11.182;2023-02-25T08:00:59;36.83;;;17.88;;
55254;SDS011;41118;44.634;11.182;2023-02-25T08:03:27;41.75;;;18.20;;
55254;SDS011;41118;44.634;11.182;2023-02-25T08:05:53;42.08;;;19.52;;
55254;SDS011;41118;44.634;11.182;2023-02-25T08:08:19;46.28;;;18.63;;
55254;SDS011;41118;44.634;11.182;2023-02-25T08:10:46;45.90;;;20.20;;
55254;SDS011;41118;44.634;11.182;2023-02-25T08:13:12;44.75;;;19.85;;
55254;SDS011;41118;44.634;11.182;2023-02-25T08:15:42;44.60;;;20.38;;
55254;SDS011;41118;44.634;11.182;2023-02-25T08:18:08;51.05;;;18.17;;
55254;SDS011;41118;44.634;11.182;2023-02-25T08:20:35;39.33;;;19.17;;
55254;SDS011;41118;44.634;11.182;2023-02-25T08:23:01;46.13;;;18.80;;
55254;SDS011;41118;44.634;11.182;2023-02-25T08:25:27;44.60;;;18.70;;
55254;SDS011;41118;44.634;11.182;2023-02-25T08:27:53;56.00;;;21.48;;
55254;SDS011;41118;44.634;11.182;2023-02-25T08:30:19;46.15;;;21.00;;
55254;SDS011;41118;44.634;11.182;2023-02-25T08:32:45;54.60;;;21.95;;
55254;SDS011;41118;44.634;11.182;2023-02-25T08:35:12;54.97;;;22.90;;
55254;SDS011;41118;44.634;11.182;2023-02-25T08:37:38;56.88;;;24.45;;
55254;SDS011;41118;44.634;11.182;2023-02-25T08:40:04;51.65;;;22.30;;
55254;SDS011;41118;44.634;11.182;2023-02-25T08:42:35;55.85;;;23.80;;
55254;SDS011;41118;44.634;11.182;2023-02-25T08:45:02;53.15;;;22.98;;
55254;SDS011;41118;44.634;11.182;2023-02-25T08:47:28;49.03;;;20.85;;
55254;SDS011;41118;44.634;11.182;2023-02-25T08:49:55;62.70;;;26.25;;
55254;SDS011;41118;44.634;11.182;2023-02-25T08:52:21;62.42;;;24.52;;
55254;SDS011;41118;44.634;11.182;2023-02-25T08:54:47;49.67;;;22.83;;
55254;SDS011;41118;44.634;11.182;2023-02-25T08:57:13;60.67;;;24.90;;
55254;SDS011;41118;44.634;11.182;2023-02-25T08:59:39;65.85;;;26.70;;
55254;SDS011;41118;44.634;11.182;2023-02-25T09:02:08;54.53;;;24.10;;
55254;SDS011;41118;44.634;11.182;2023-02-25T09:04:39;53.58;;;21.77;;
55254;SDS011;41118;44.634;11.182;2023-02-25T09:07:06;60.10;;;29.25;;
55254;SDS011;41118;44.634;11.182;2023-02-25T09:09:32;75.07;;;26.92;;
55254;SDS011;41118;44.634;11.182;2023-02-25T09:11:58;56.53;;;24.83;;
55254;SDS011;41118;44.634;11.182;2023-02-25T09:14:25;62.45;;;26.45;;
55254;SDS011;41118;44.634;11.182;2023-02-25T09:16:51;58.40;;;24.60;;
55254;SDS011;41118;44.634;11.182;2023-02-25T09:19:17;60.22;;;24.17;;
55254;SDS011;41118;44.634;11.182;2023-02-25T09:21:45;65.40;;;25.17;;
55254;SDS011;41118;44.634;11.182;2023-02-25T09:24:14;56.22;;;22.17;;
55254;SDS011;41118;44.634;11.182;2023-02-25T09:26:40;60.17;;;25.27;;
55254;SDS011;41118;44.634;11.182;2023-02-25T09:29:06;58.58;;;22.38;;
55254;SDS011;41118;44.634;11.182;2023-02-25T09:31:33;60.03;;;25.17;;
55254;SDS011;41118;44.634;11.182;2023-02-25T09:34:05;50.33;;;23.38;;
55254;SDS011;41118;44.634;11.182;2023-02-25T09:36:31;65.13;;;24.45;;
55254;SDS011;41118;44.634;11.182;2023-02-25T09:38:58;51.28;;;23.65;;
55254;SDS011;41118;44.634;11.182;2023-02-25T09:41:34;63.00;;;24.17;;
55254;SDS011;41118;44.634;11.182;2023-02-25T09:44:05;51.20;;;21.33;;
55254;SDS011;41118;44.634;11.182;2023-02-25T09:46:34;46.05;;;18.23;;
55254;SDS011;41118;44.634;11.182;2023-02-25T09:49:05;44.92;;;16.27;;
55254;SDS011;41118;44.634;11.182;2023-02-25T09:51:39;45.22;;;16.98;;
55254;SDS011;41118;44.634;11.182;2023-02-25T09:56:36;33.40;;;13.13;;
55254;SDS011;41118;44.634;11.182;2023-02-25T09:59:03;27.30;;;11.75;;
55254;SDS011;41118;44.634;11.182;2023-02-25T10:01:35;33.10;;;12.88;;
55254;SDS011;41118;44.634;11.182;2023-02-25T10:06:51;27.90;;;8.63;;
55254;SDS011;41118;44.634;11.182;2023-02-25T10:09:31;31.73;;;10.10;;
55254;SDS011;41118;44.634;11.182;2023-02-25T10:14:36;24.10;;;7.53;;
55254;SDS011;41118;44.634;11.182;2023-02-25T10:19:53;23.80;;;7.00;;
55254;SDS011;41118;44.634;11.182;2023-02-25T10:27:40;20.00;;;5.85;;
55254;SDS011;41118;44.634;11.182;2023-02-25T10:30:22;17.70;;;5.05;;
55254;SDS011;41118;44.634;11.182;2023-02-25T10:32:50;18.13;;;5.18;;
55254;SDS011;41118;44.634;11.182;2023-02-25T10:37:43;14.23;;;3.30;;
55254;SDS011;41118;44.634;11.182;2023-02-25T10:40:13;14.20;;;4.28;;
55254;SDS011;41118;44.634;11.182;2023-02-25T10:42:39;21.77;;;7.78;;
55254;SDS011;41118;44.634;11.182;2023-02-25T10:45:08;29.15;;;8.73;;
55254;SDS011;41118;44.634;11.182;2023-02-25T10:47:35;24.63;;;5.85;;
55254;SDS011;41118;44.634;11.182;2023-02-25T10:50:35;28.23;;;7.47;;
55254;SDS011;41118;44.634;11.182;2023-02-25T10:52:56;21.98;;;7.47;;
55254;SDS011;41118;44.634;11.182;2023-02-25T10:56:08;21.42;;;6.45;;
55254;SDS011;41118;44.634;11.182;2023-02-25T10:58:24;32.28;;;10.80;;
55254;SDS011;41118;44.634;11.182;2023-02-25T11:00:54;19.60;;;6.93;;
55254;SDS011;41118;44.634;11.182;2023-02-25T11:03:21;28.50;;;10.60;;
55254;SDS011;41118;44.634;11.182;2023-02-25T11:05:48;32.20;;;9.68;;
55254;SDS011;41118;44.634;11.182;2023-02-25T11:08:48;35.30;;;10.50;;
55254;SDS011;41118;44.634;11.182;2023-02-25T11:11:15;21.75;;;4.20;;
55254;SDS011;41118;44.634;11.182;2023-02-25T11:13:42;19.77;;;5.50;;
55254;SDS011;41118;44.634;11.182;2023-02-25T11:16:09;21.70;;;5.88;;
55254;SDS011;41118;44.634;11.182;2023-02-25T11:18:36;25.00;;;4.55;;
55254;SDS011;41118;44.634;11.182;2023-02-25T11:21:07;10.98;;;3.50;;
55254;SDS011;41118;44.634;11.182;2023-02-25T11:25:59;11.50;;;4.70;;
55254;SDS011;41118;44.634;11.182;2023-02-25T11:28:30;17.15;;;4.55;;
55254;SDS011;41118;44.634;11.182;2023-02-25T11:31:11;18.67;;;3.88;;
55254;SDS011;41118;44.634;11.182;2023-02-25T11:33:41;11.43;;;3.15;;
55254;SDS011;41118;44.634;11.182;2023-02-25T11:36:08;23.25;;;4.05;;
55254;SDS011;41118;44.634;11.182;2023-02-25T11:38:36;13.95;;;5.18;;
55254;SDS011;41118;44.634;11.182;2023-02-25T11:41:03;30.70;;;5.90;;
55254;SDS011;41118;44.634;11.182;2023-02-25T11:43:38;24.58;;;5.85;;
55254;SDS011;41118;44.634;11.182;2023-02-25T11:46:06;22.02;;;5.93;;
55254;SDS011;41118;44.634;11.182;2023-02-25T11:48:53;22.08;;;6.47;;
55254;SDS011;41118;44.634;11.182;2023-02-25T11:56:36;22.80;;;6.18;;
55254;SDS011;41118;44.634;11.182;2023-02-25T12:04:27;11.13;;;4.60;;
55254;SDS011;41118;44.634;11.182;2023-02-25T12:09:48;18.38;;;6.72;;
55254;SDS011;41118;44.634;11.182;2023-02-25T12:20:24;20.58;;;4.70;;
55254;SDS011;41118;44.634;11.182;2023-02-25T12:25:45;18.38;;;4.78;;
55254;SDS011;41118;44.634;11.182;2023-02-25T12:31:05;12.45;;;3.65;;
55254;SDS011;41118;44.634;11.182;2023-02-25T13:15:53;16.27;;;4.43;;
55254;SDS011;41118;44.634;11.182;2023-02-25T13:36:36;24.95;;;6.85;;
55254;SDS011;41118;44.634;11.182;2023-02-25T13:54:47;17.35;;;5.18;;
55254;SDS011;41118;44.634;11.182;2023-02-25T14:10:19;12.63;;;3.25;;
55254;SDS011;41118;44.634;11.182;2023-02-25T14:20:41;18.10;;;3.17;;
55254;SDS011;41118;44.634;11.182;2023-02-25T14:25:54;15.88;;;3.67;;
55254;SDS011;41118;44.634;11.182;2023-02-25T14:28:30;11.05;;;2.33;;
55254;SDS011;41118;44.634;11.182;2023-02-25T14:31:04;14.63;;;3.47;;
55254;SDS011;41118;44.634;11.182;2023-02-25T14:33:38;15.13;;;4.22;;
55254;SDS011;41118;44.634;11.182;2023-02-25T14:41:26;9.98;;;2.17;;
55254;SDS011;41118;44.634;11.182;2023-02-25T14:43:56;19.88;;;3.70;;
55254;SDS011;41118;44.634;11.182;2023-02-25T14:46:29;19.48;;;1.80;;
55254;SDS011;41118;44.634;11.182;2023-02-25T14:56:24;9.23;;;2.58;;
55254;SDS011;41118;44.634;11.182;2023-02-25T15:04:16;15.35;;;3.05;;
55254;SDS011;41118;44.634;11.182;2023-02-25T15:06:49;16.27;;;3.20;;
55254;SDS011;41118;44.634;11.182;2023-02-25T15:24:50;17.05;;;2.83;;
55254;SDS011;41118;44.634;11.182;2023-02-25T15:30:02;12.30;;;2.22;;
55254;SDS011;41118;44.634;11.182;2023-02-25T15:32:44;7.38;;;2.30;;
55254;SDS011;41118;44.634;11.182;2023-02-25T15:35:11;7.05;;;1.70;;
55254;SDS011;41118;44.634;11.182;2023-02-25T15:42:45;16.30;;;2.88;;
55254;SDS011;41118;44.634;11.182;2023-02-25T15:47:41;8.40;;;2.33;;
55254;SDS011;41118;44.634;11.182;2023-02-25T15:50:07;15.25;;;3.03;;
55254;SDS011;41118;44.634;11.182;2023-02-25T15:52:50;17.13;;;3.00;;
55254;SDS011;41118;44.634;11.182;2023-02-25T15:55:30;11.70;;;3.47;;
55254;SDS011;41118;44.634;11.182;2023-02-25T15:57:56;10.25;;;2.10;;
55254;SDS011;41118;44.634;11.182;2023-02-25T16:05:52;12.82;;;2.65;;
55254;SDS011;41118;44.634;11.182;2023-02-25T16:08:23;11.38;;;3.47;;
55254;SDS011;41118;44.634;11.182;2023-02-25T16:10:53;12.52;;;2.20;;
55254;SDS011;41118;44.634;11.182;2023-02-25T16:13:28;16.20;;;3.67;;
55254;SDS011;41118;44.634;11.182;2023-02-25T16:15:55;11.07;;;3.72;;
55254;SDS011;41118;44.634;11.182;2023-02-25T16:20:57;13.95;;;2.50;;
55254;SDS011;41118;44.634;11.182;2023-02-25T16:23:24;13.57;;;3.03;;
55254;SDS011;41118;44.634;11.182;2023-02-25T16:30:55;9.30;;;3.03;;
55254;SDS011;41118;44.634;11.182;2023-02-25T16:41:20;21.02;;;4.53;;
55254;SDS011;41118;44.634;11.182;2023-02-25T16:43:47;21.33;;;4.40;;
55254;SDS011;41118;44.634;11.182;2023-02-25T16:46:19;14.60;;;3.80;;
55254;SDS011;41118;44.634;11.182;2023-02-25T16:53:44;17.30;;;4.50;;
55254;SDS011;41118;44.634;11.182;2023-02-25T16:56:19;23.77;;;5.93;;
55254;SDS011;41118;44.634;11.182;2023-02-25T16:59:10;19.35;;;5.32;;
55254;SDS011;41118;44.634;11.182;2023-02-25T17:07:04;15.85;;;5.47;;
55254;SDS011;41118;44.634;11.182;2023-02-25T17:09:30;19.60;;;5.53;;
55254;SDS011;41118;44.634;11.182;2023-02-25T17:11:57;22.52;;;5.55;;
55254;SDS011;41118;44.634;11.182;2023-02-25T17:14:23;20.00;;;4.57;;
55254;SDS011;41118;44.634;11.182;2023-02-25T17:16:50;23.65;;;5.90;;
55254;SDS011;41118;44.634;11.182;2023-02-25T17:19:16;20.08;;;4.88;;
55254;SDS011;41118;44.634;11.182;2023-02-25T17:21:44;20.80;;;4.72;;
55254;SDS011;41118;44.634;11.182;2023-02-25T17:24:16;14.57;;;3.33;;
55254;SDS011;41118;44.634;11.182;2023-02-25T17:26:44;14.65;;;4.93;;
55254;SDS011;41118;44.634;11.182;2023-02-25T17:29:13;24.75;;;5.88;;
55254;SDS011;41118;44.634;11.182;2023-02-25T17:31:46;13.70;;;4.53;;
55254;SDS011;41118;44.634;11.182;2023-02-25T17:34:34;20.30;;;4.57;;
55254;SDS011;41118;44.634;11.182;2023-02-25T17:37:02;11.30;;;4.32;;
55254;SDS011;41118;44.634;11.182;2023-02-25T17:39:29;26.80;;;5.85;;
55254;SDS011;41118;44.634;11.182;2023-02-25T17:41:56;21.05;;;6.22;;
55254;SDS011;41118;44.634;11.182;2023-02-25T17:44:43;21.30;;;5.38;;
55254;SDS011;41118;44.634;11.182;2023-02-25T17:47:16;16.48;;;5.05;;
55254;SDS011;41118;44.634;11.182;2023-02-25T17:49:43;28.17;;;6.55;;
55254;SDS011;41118;44.634;11.182;2023-02-25T17:55:06;21.60;;;5.68;;
55254;SDS011;41118;44.634;11.182;2023-02-25T17:57:45;14.80;;;5.90;;
55254;SDS011;41118;44.634;11.182;2023-02-25T18:00:22;20.83;;;6.65;;
55254;SDS011;41118;44.634;11.182;2023-02-25T18:05:39;17.23;;;5.95;;
55254;SDS011;41118;44.634;11.182;2023-02-25T18:10:43;29.63;;;10.05;;
55254;SDS011;41118;44.634;11.182;2023-02-25T18:13:15;24.60;;;9.88;;
55254;SDS011;41118;44.634;11.182;2023-02-25T18:15:43;31.10;;;10.40;;
55254;SDS011;41118;44.634;11.182;2023-02-25T18:18:12;31.52;;;14.18;;
55254;SDS011;41118;44.634;11.182;2023-02-25T18:20:43;35.35;;;14.32;;
55254;SDS011;41118;44.634;11.182;2023-02-25T18:28:04;31.75;;;14.50;;
55254;SDS011;41118;44.634;11.182;2023-02-25T18:30:31;34.80;;;14.40;;
55254;SDS011;41118;44.634;11.182;2023-02-25T18:32:57;32.15;;;12.55;;
55254;SDS011;41118;44.634;11.182;2023-02-25T18:35:24;43.90;;;17.58;;
55254;SDS011;41118;44.634;11.182;2023-02-25T18:37:51;29.83;;;15.02;;
55254;SDS011;41118;44.634;11.182;2023-02-25T18:42:44;19.75;;;9.75;;
55254;SDS011;41118;44.634;11.182;2023-02-25T18:45:20;24.45;;;9.57;;
55254;SDS011;41118;44.634;11.182;2023-02-25T18:47:46;29.45;;;10.68;;